sensor_id;sensor_type;location;lat;lon;timestamp;P1;durP1;ratioP1;P2;durP2;ratioP2
20697;SDS011;10508;50.956;4.640;2023-07-29T00:00:53;1.77;;;1.27;;
20697;SDS011;10508;50.956;4.640;2023-07-29T00:03:20;1.40;;;1.00;;
20697;SDS011;10508;50.956;4.640;2023-07-29T00:05:47;1.38;;;1.00;;
20697;SDS011;10508;50.956;4.640;2023-07-29T00:08:13;8.43;;;1.73;;
20697;SDS011;10508;50.956;4.640;2023-07-29T00:10:38;2.55;;;1.20;;
20697;SDS011;10508;50.956;4.640;2023-07-29T00:13:05;4.45;;;1.15;;
20697;SDS011;10508;50.956;4.640;2023-07-29T00:15:31;1.75;;;1.08;;
20697;SDS011;10508;50.956;4.640;2023-07-29T00:17:57;1.20;;;0.93;;
20697;SDS011;10508;50.956;4.640;2023-07-29T00:20:23;1.60;;;1.05;;
20697;SDS011;10508;50.956;4.640;2023-07-29T00:22:49;2.03;;;1.13;;
20697;SDS011;10508;50.956;4.640;2023-07-29T00:25:18;2.25;;;1.02;;
20697;SDS011;10508;50.956;4.640;2023-07-29T00:27:44;3.88;;;1.30;;
20697;SDS011;10508;50.956;4.640;2023-07-29T00:30:10;2.50;;;1.30;;
20697;SDS011;10508;50.956;4.640;2023-07-29T00:32:36;0.98;;;0.85;;
20697;SDS011;10508;50.956;4.640;2023-07-29T00:35:02;1.10;;;0.80;;
20697;SDS011;10508;50.956;4.640;2023-07-29T00:37:29;1.50;;;1.02;;
20697;SDS011;10508;50.956;4.640;2023-07-29T00:39:55;4.07;;;1.10;;
20697;SDS011;10508;50.956;4.640;2023-07-29T00:42:22;2.00;;;1.02;;
20697;SDS011;10508;50.956;4.640;2023-07-29T00:44:48;4.05;;;1.30;;
20697;SDS011;10508;50.956;4.640;2023-07-29T00:47:15;0.90;;;0.80;;
20697;SDS011;10508;50.956;4.640;2023-07-29T00:49:56;1.15;;;0.90;;
20697;SDS011;10508;50.956;4.640;2023-07-29T00:52:22;1.50;;;1.33;;
20697;SDS011;10508;50.956;4.640;2023-07-29T00:54:48;2.05;;;1.20;;
20697;SDS011;10508;50.956;4.640;2023-07-29T00:57:14;1.20;;;0.90;;
20697;SDS011;10508;50.956;4.640;2023-07-29T00:59:41;1.58;;;1.00;;
20697;SDS011;10508;50.956;4.640;2023-07-29T01:02:07;1.73;;;1.10;;
20697;SDS011;10508;50.956;4.640;2023-07-29T01:04:33;2.15;;;1.10;;
20697;SDS011;10508;50.956;4.640;2023-07-29T01:12:08;2.67;;;1.08;;
20697;SDS011;10508;50.956;4.640;2023-07-29T01:17:04;1.48;;;0.82;;
20697;SDS011;10508;50.956;4.640;2023-07-29T01:20:33;3.00;;;0.77;;
20697;SDS011;10508;50.956;4.640;2023-07-29T01:22:30;6.07;;;1.02;;
20697;SDS011;10508;50.956;4.640;2023-07-29T01:24:58;1.17;;;0.90;;
20697;SDS011;10508;50.956;4.640;2023-07-29T01:27:24;2.53;;;1.13;;
20697;SDS011;10508;50.956;4.640;2023-07-29T01:29:50;4.35;;;0.95;;
20697;SDS011;10508;50.956;4.640;2023-07-29T01:32:19;1.95;;;0.90;;
20697;SDS011;10508;50.956;4.640;2023-07-29T01:34:46;2.72;;;1.05;;
20697;SDS011;10508;50.956;4.640;2023-07-29T01:37:15;1.08;;;0.80;;
20697;SDS011;10508;50.956;4.640;2023-07-29T01:39:43;1.95;;;0.90;;
20697;SDS011;10508;50.956;4.640;2023-07-29T01:42:10;3.15;;;0.90;;
20697;SDS011;10508;50.956;4.640;2023-07-29T01:44:36;1.35;;;0.80;;
20697;SDS011;10508;50.956;4.640;2023-07-29T01:47:02;2.38;;;0.93;;
20697;SDS011;10508;50.956;4.640;2023-07-29T01:49:28;1.80;;;0.88;;
20697;SDS011;10508;50.956;4.640;2023-07-29T01:51:54;0.60;;;0.60;;
20697;SDS011;10508;50.956;4.640;2023-07-29T01:54:20;4.20;;;0.70;;
20697;SDS011;10508;50.956;4.640;2023-07-29T01:56:46;2.08;;;0.95;;
20697;SDS011;10508;50.956;4.640;2023-07-29T01:59:12;3.70;;;1.13;;
20697;SDS011;10508;50.956;4.640;2023-07-29T02:01:40;2.28;;;1.00;;
20697;SDS011;10508;50.956;4.640;2023-07-29T02:04:06;6.25;;;1.00;;
20697;SDS011;10508;50.956;4.640;2023-07-29T02:06:32;3.55;;;1.35;;
20697;SDS011;10508;50.956;4.640;2023-07-29T02:08:58;2.08;;;1.10;;
20697;SDS011;10508;50.956;4.640;2023-07-29T02:11:24;4.35;;;1.00;;
20697;SDS011;10508;50.956;4.640;2023-07-29T02:13:53;4.85;;;1.20;;
20697;SDS011;10508;50.956;4.640;2023-07-29T02:16:20;3.72;;;1.20;;
20697;SDS011;10508;50.956;4.640;2023-07-29T02:18:48;3.83;;;1.00;;
20697;SDS011;10508;50.956;4.640;2023-07-29T02:21:15;3.13;;;0.95;;
20697;SDS011;10508;50.956;4.640;2023-07-29T02:23:41;3.88;;;1.15;;
20697;SDS011;10508;50.956;4.640;2023-07-29T02:26:07;2.50;;;1.10;;
20697;SDS011;10508;50.956;4.640;2023-07-29T02:28:33;1.25;;;0.88;;
20697;SDS011;10508;50.956;4.640;2023-07-29T02:31:15;1.13;;;0.75;;
20697;SDS011;10508;50.956;4.640;2023-07-29T02:33:42;1.98;;;1.10;;
20697;SDS011;10508;50.956;4.640;2023-07-29T02:36:08;1.20;;;0.85;;
20697;SDS011;10508;50.956;4.640;2023-07-29T02:38:34;1.73;;;0.88;;
20697;SDS011;10508;50.956;4.640;2023-07-29T02:41:00;1.63;;;0.77;;
20697;SDS011;10508;50.956;4.640;2023-07-29T02:43:26;3.92;;;0.90;;
20697;SDS011;10508;50.956;4.640;2023-07-29T02:45:52;1.23;;;0.80;;
20697;SDS011;10508;50.956;4.640;2023-07-29T02:48:18;1.73;;;0.88;;
20697;SDS011;10508;50.956;4.640;2023-07-29T02:50:44;1.50;;;0.98;;
20697;SDS011;10508;50.956;4.640;2023-07-29T02:53:10;1.10;;;0.90;;
20697;SDS011;10508;50.956;4.640;2023-07-29T02:55:39;3.83;;;1.15;;
20697;SDS011;10508;50.956;4.640;2023-07-29T02:58:05;2.53;;;0.98;;
20697;SDS011;10508;50.956;4.640;2023-07-29T03:00:34;1.38;;;0.98;;
20697;SDS011;10508;50.956;4.640;2023-07-29T03:03:00;1.85;;;1.05;;
20697;SDS011;10508;50.956;4.640;2023-07-29T03:05:27;2.63;;;0.80;;
20697;SDS011;10508;50.956;4.640;2023-07-29T03:07:53;1.63;;;0.85;;
20697;SDS011;10508;50.956;4.640;2023-07-29T03:10:37;1.25;;;0.73;;
20697;SDS011;10508;50.956;4.640;2023-07-29T03:13:03;2.38;;;1.05;;
20697;SDS011;10508;50.956;4.640;2023-07-29T03:15:31;1.95;;;1.00;;
20697;SDS011;10508;50.956;4.640;2023-07-29T03:17:59;1.60;;;1.10;;
20697;SDS011;10508;50.956;4.640;2023-07-29T03:20:40;3.28;;;1.10;;
20697;SDS011;10508;50.956;4.640;2023-07-29T03:23:06;1.65;;;1.10;;
20697;SDS011;10508;50.956;4.640;2023-07-29T03:25:32;4.53;;;1.10;;
20697;SDS011;10508;50.956;4.640;2023-07-29T03:27:58;1.17;;;0.88;;
20697;SDS011;10508;50.956;4.640;2023-07-29T03:30:24;4.90;;;1.30;;
20697;SDS011;10508;50.956;4.640;2023-07-29T03:32:51;2.47;;;0.98;;
20697;SDS011;10508;50.956;4.640;2023-07-29T03:35:17;1.27;;;1.00;;
20697;SDS011;10508;50.956;4.640;2023-07-29T03:37:44;2.17;;;1.45;;
20697;SDS011;10508;50.956;4.640;2023-07-29T03:40:10;7.60;;;0.98;;
20697;SDS011;10508;50.956;4.640;2023-07-29T03:42:36;1.25;;;1.02;;
20697;SDS011;10508;50.956;4.640;2023-07-29T03:45:03;2.95;;;1.15;;
20697;SDS011;10508;50.956;4.640;2023-07-29T03:47:29;6.35;;;1.10;;
20697;SDS011;10508;50.956;4.640;2023-07-29T03:49:55;2.72;;;1.20;;
20697;SDS011;10508;50.956;4.640;2023-07-29T03:52:21;2.45;;;1.17;;
20697;SDS011;10508;50.956;4.640;2023-07-29T03:54:47;3.58;;;1.10;;
20697;SDS011;10508;50.956;4.640;2023-07-29T03:57:13;1.00;;;0.90;;
20697;SDS011;10508;50.956;4.640;2023-07-29T03:59:39;2.70;;;1.15;;
20697;SDS011;10508;50.956;4.640;2023-07-29T04:02:05;5.38;;;1.15;;
20697;SDS011;10508;50.956;4.640;2023-07-29T04:04:31;1.52;;;0.85;;
20697;SDS011;10508;50.956;4.640;2023-07-29T04:06:57;1.10;;;1.00;;
20697;SDS011;10508;50.956;4.640;2023-07-29T04:09:23;2.95;;;1.30;;
20697;SDS011;10508;50.956;4.640;2023-07-29T04:11:49;1.88;;;1.27;;
20697;SDS011;10508;50.956;4.640;2023-07-29T04:14:15;4.18;;;1.10;;
20697;SDS011;10508;50.956;4.640;2023-07-29T04:16:41;2.22;;;1.30;;
20697;SDS011;10508;50.956;4.640;2023-07-29T04:19:07;6.65;;;1.20;;
20697;SDS011;10508;50.956;4.640;2023-07-29T04:21:33;3.08;;;1.08;;
20697;SDS011;10508;50.956;4.640;2023-07-29T04:23:59;3.22;;;1.02;;
20697;SDS011;10508;50.956;4.640;2023-07-29T04:26:25;1.75;;;1.10;;
20697;SDS011;10508;50.956;4.640;2023-07-29T04:28:51;4.07;;;1.50;;
20697;SDS011;10508;50.956;4.640;2023-07-29T04:31:17;4.13;;;1.20;;
20697;SDS011;10508;50.956;4.640;2023-07-29T04:33:43;2.13;;;1.17;;
20697;SDS011;10508;50.956;4.640;2023-07-29T04:36:27;3.30;;;1.10;;
20697;SDS011;10508;50.956;4.640;2023-07-29T04:38:56;3.40;;;1.23;;
20697;SDS011;10508;50.956;4.640;2023-07-29T04:41:22;1.15;;;1.02;;
20697;SDS011;10508;50.956;4.640;2023-07-29T04:43:48;9.07;;;1.60;;
20697;SDS011;10508;50.956;4.640;2023-07-29T04:46:14;2.10;;;1.20;;
20697;SDS011;10508;50.956;4.640;2023-07-29T04:48:40;2.17;;;1.02;;
20697;SDS011;10508;50.956;4.640;2023-07-29T04:51:06;1.23;;;1.00;;
20697;SDS011;10508;50.956;4.640;2023-07-29T04:53:32;1.80;;;1.30;;
20697;SDS011;10508;50.956;4.640;2023-07-29T04:56:00;1.15;;;0.90;;
20697;SDS011;10508;50.956;4.640;2023-07-29T04:58:26;2.42;;;1.20;;
20697;SDS011;10508;50.956;4.640;2023-07-29T05:00:54;3.83;;;1.05;;
20697;SDS011;10508;50.956;4.640;2023-07-29T05:03:19;2.58;;;1.25;;
20697;SDS011;10508;50.956;4.640;2023-07-29T05:05:45;1.48;;;0.90;;
20697;SDS011;10508;50.956;4.640;2023-07-29T05:08:11;2.10;;;1.15;;
20697;SDS011;10508;50.956;4.640;2023-07-29T05:10:37;1.80;;;1.10;;
20697;SDS011;10508;50.956;4.640;2023-07-29T05:13:03;2.03;;;1.20;;
20697;SDS011;10508;50.956;4.640;2023-07-29T05:15:29;1.48;;;0.93;;
20697;SDS011;10508;50.956;4.640;2023-07-29T05:17:56;1.50;;;1.05;;
20697;SDS011;10508;50.956;4.640;2023-07-29T05:20:22;4.80;;;1.15;;
20697;SDS011;10508;50.956;4.640;2023-07-29T05:22:47;1.98;;;1.02;;
20697;SDS011;10508;50.956;4.640;2023-07-29T05:25:13;2.95;;;1.30;;
20697;SDS011;10508;50.956;4.640;2023-07-29T05:27:39;2.83;;;1.20;;
20697;SDS011;10508;50.956;4.640;2023-07-29T05:30:07;1.60;;;1.10;;
20697;SDS011;10508;50.956;4.640;2023-07-29T05:32:33;4.05;;;1.20;;
20697;SDS011;10508;50.956;4.640;2023-07-29T05:34:59;7.68;;;1.70;;
20697;SDS011;10508;50.956;4.640;2023-07-29T05:37:25;2.15;;;1.05;;
20697;SDS011;10508;50.956;4.640;2023-07-29T05:39:51;1.50;;;1.10;;
20697;SDS011;10508;50.956;4.640;2023-07-29T05:42:17;2.30;;;1.50;;
20697;SDS011;10508;50.956;4.640;2023-07-29T05:44:43;4.60;;;1.23;;
20697;SDS011;10508;50.956;4.640;2023-07-29T05:47:09;1.48;;;1.08;;
20697;SDS011;10508;50.956;4.640;2023-07-29T05:49:35;2.15;;;1.20;;
20697;SDS011;10508;50.956;4.640;2023-07-29T05:52:01;3.58;;;1.83;;
20697;SDS011;10508;50.956;4.640;2023-07-29T05:54:27;1.67;;;1.10;;
20697;SDS011;10508;50.956;4.640;2023-07-29T05:56:53;4.10;;;1.30;;
20697;SDS011;10508;50.956;4.640;2023-07-29T05:59:19;4.88;;;1.35;;
20697;SDS011;10508;50.956;4.640;2023-07-29T06:01:45;1.48;;;0.80;;
20697;SDS011;10508;50.956;4.640;2023-07-29T06:04:11;1.65;;;1.00;;
20697;SDS011;10508;50.956;4.640;2023-07-29T06:06:37;1.88;;;1.02;;
20697;SDS011;10508;50.956;4.640;2023-07-29T06:09:03;5.07;;;1.27;;
20697;SDS011;10508;50.956;4.640;2023-07-29T06:11:29;2.50;;;1.48;;
20697;SDS011;10508;50.956;4.640;2023-07-29T06:13:55;2.05;;;1.05;;
20697;SDS011;10508;50.956;4.640;2023-07-29T06:16:21;1.58;;;0.90;;
20697;SDS011;10508;50.956;4.640;2023-07-29T06:18:47;2.08;;;0.90;;
20697;SDS011;10508;50.956;4.640;2023-07-29T06:21:13;4.45;;;1.40;;
20697;SDS011;10508;50.956;4.640;2023-07-29T06:23:42;3.10;;;0.90;;
20697;SDS011;10508;50.956;4.640;2023-07-29T06:26:08;1.80;;;0.80;;
20697;SDS011;10508;50.956;4.640;2023-07-29T06:28:34;1.33;;;0.80;;
20697;SDS011;10508;50.956;4.640;2023-07-29T06:31:00;5.80;;;0.90;;
20697;SDS011;10508;50.956;4.640;2023-07-29T06:33:26;2.85;;;0.80;;
20697;SDS011;10508;50.956;4.640;2023-07-29T06:35:52;4.28;;;0.82;;
20697;SDS011;10508;50.956;4.640;2023-07-29T06:38:18;1.33;;;0.77;;
20697;SDS011;10508;50.956;4.640;2023-07-29T06:40:47;1.85;;;1.00;;
20697;SDS011;10508;50.956;4.640;2023-07-29T06:43:13;4.03;;;1.05;;
20697;SDS011;10508;50.956;4.640;2023-07-29T06:45:39;2.88;;;0.95;;
20697;SDS011;10508;50.956;4.640;2023-07-29T06:48:05;1.08;;;0.70;;
20697;SDS011;10508;50.956;4.640;2023-07-29T06:50:31;2.38;;;0.90;;
20697;SDS011;10508;50.956;4.640;2023-07-29T06:52:57;1.70;;;0.88;;
20697;SDS011;10508;50.956;4.640;2023-07-29T06:55:23;6.05;;;1.00;;
20697;SDS011;10508;50.956;4.640;2023-07-29T06:57:49;0.93;;;0.70;;
20697;SDS011;10508;50.956;4.640;2023-07-29T07:00:15;2.22;;;0.98;;
20697;SDS011;10508;50.956;4.640;2023-07-29T07:02:41;3.08;;;0.93;;
20697;SDS011;10508;50.956;4.640;2023-07-29T07:05:26;1.23;;;0.70;;
20697;SDS011;10508;50.956;4.640;2023-07-29T07:07:52;0.73;;;0.65;;
20697;SDS011;10508;50.956;4.640;2023-07-29T07:10:18;1.65;;;0.80;;
20697;SDS011;10508;50.956;4.640;2023-07-29T07:12:45;2.35;;;1.00;;
20697;SDS011;10508;50.956;4.640;2023-07-29T07:15:11;8.50;;;1.00;;
20697;SDS011;10508;50.956;4.640;2023-07-29T07:17:37;1.10;;;0.80;;
20697;SDS011;10508;50.956;4.640;2023-07-29T07:20:03;3.70;;;1.05;;
20697;SDS011;10508;50.956;4.640;2023-07-29T07:22:29;0.75;;;0.65;;
20697;SDS011;10508;50.956;4.640;2023-07-29T07:24:55;6.60;;;1.15;;
20697;SDS011;10508;50.956;4.640;2023-07-29T07:27:21;2.60;;;1.08;;
20697;SDS011;10508;50.956;4.640;2023-07-29T07:29:47;3.58;;;0.80;;
20697;SDS011;10508;50.956;4.640;2023-07-29T07:32:13;0.70;;;0.60;;
20697;SDS011;10508;50.956;4.640;2023-07-29T07:34:39;4.45;;;0.88;;
20697;SDS011;10508;50.956;4.640;2023-07-29T07:37:05;2.30;;;1.10;;
20697;SDS011;10508;50.956;4.640;2023-07-29T07:39:31;1.33;;;0.70;;
20697;SDS011;10508;50.956;4.640;2023-07-29T07:41:57;2.08;;;1.00;;
20697;SDS011;10508;50.956;4.640;2023-07-29T07:44:23;2.35;;;0.90;;
20697;SDS011;10508;50.956;4.640;2023-07-29T07:46:51;2.80;;;1.00;;
20697;SDS011;10508;50.956;4.640;2023-07-29T07:49:17;2.08;;;0.80;;
20697;SDS011;10508;50.956;4.640;2023-07-29T07:51:43;2.67;;;1.45;;
20697;SDS011;10508;50.956;4.640;2023-07-29T07:54:09;4.00;;;1.00;;
20697;SDS011;10508;50.956;4.640;2023-07-29T07:56:35;1.83;;;1.10;;
20697;SDS011;10508;50.956;4.640;2023-07-29T07:59:01;3.42;;;1.05;;
20697;SDS011;10508;50.956;4.640;2023-07-29T08:01:27;1.48;;;1.10;;
20697;SDS011;10508;50.956;4.640;2023-07-29T08:03:53;2.50;;;0.80;;
20697;SDS011;10508;50.956;4.640;2023-07-29T08:06:19;1.77;;;0.70;;
20697;SDS011;10508;50.956;4.640;2023-07-29T08:08:46;1.00;;;0.70;;
20697;SDS011;10508;50.956;4.640;2023-07-29T08:11:12;1.05;;;0.65;;
20697;SDS011;10508;50.956;4.640;2023-07-29T08:13:38;1.30;;;1.13;;
20697;SDS011;10508;50.956;4.640;2023-07-29T08:16:04;1.15;;;0.80;;
20697;SDS011;10508;50.956;4.640;2023-07-29T08:18:30;2.22;;;0.90;;
20697;SDS011;10508;50.956;4.640;2023-07-29T08:20:56;2.25;;;0.70;;
20697;SDS011;10508;50.956;4.640;2023-07-29T08:23:32;1.55;;;0.80;;
20697;SDS011;10508;50.956;4.640;2023-07-29T08:25:58;0.98;;;0.80;;
20697;SDS011;10508;50.956;4.640;2023-07-29T08:28:30;1.45;;;0.80;;
20697;SDS011;10508;50.956;4.640;2023-07-29T08:30:56;2.88;;;0.90;;
20697;SDS011;10508;50.956;4.640;2023-07-29T08:33:23;1.38;;;0.70;;
20697;SDS011;10508;50.956;4.640;2023-07-29T08:35:49;1.98;;;0.90;;
20697;SDS011;10508;50.956;4.640;2023-07-29T08:38:15;1.95;;;0.90;;
20697;SDS011;10508;50.956;4.640;2023-07-29T08:40:52;1.40;;;0.80;;
20697;SDS011;10508;50.956;4.640;2023-07-29T08:43:21;1.50;;;0.75;;
20697;SDS011;10508;50.956;4.640;2023-07-29T08:45:51;0.98;;;0.60;;
20697;SDS011;10508;50.956;4.640;2023-07-29T08:48:19;1.75;;;0.80;;
20697;SDS011;10508;50.956;4.640;2023-07-29T08:50:47;1.58;;;0.55;;
20697;SDS011;10508;50.956;4.640;2023-07-29T08:53:15;2.40;;;0.90;;
20697;SDS011;10508;50.956;4.640;2023-07-29T08:55:43;2.42;;;0.88;;
20697;SDS011;10508;50.956;4.640;2023-07-29T08:58:09;1.60;;;0.80;;
20697;SDS011;10508;50.956;4.640;2023-07-29T09:00:35;1.13;;;0.57;;
20697;SDS011;10508;50.956;4.640;2023-07-29T09:03:02;1.05;;;0.75;;
20697;SDS011;10508;50.956;4.640;2023-07-29T09:05:32;1.30;;;0.90;;
20697;SDS011;10508;50.956;4.640;2023-07-29T09:07:58;2.10;;;0.88;;
20697;SDS011;10508;50.956;4.640;2023-07-29T09:10:25;1.58;;;0.80;;
20697;SDS011;10508;50.956;4.640;2023-07-29T09:12:51;1.40;;;1.00;;
20697;SDS011;10508;50.956;4.640;2023-07-29T09:15:32;2.42;;;0.77;;
20697;SDS011;10508;50.956;4.640;2023-07-29T09:17:58;1.00;;;0.80;;
20697;SDS011;10508;50.956;4.640;2023-07-29T09:20:25;2.55;;;1.60;;
20697;SDS011;10508;50.956;4.640;2023-07-29T09:22:52;2.90;;;1.02;;
20697;SDS011;10508;50.956;4.640;2023-07-29T09:25:30;1.15;;;0.82;;
20697;SDS011;10508;50.956;4.640;2023-07-29T09:27:58;2.03;;;0.98;;
20697;SDS011;10508;50.956;4.640;2023-07-29T09:30:25;2.72;;;0.93;;
20697;SDS011;10508;50.956;4.640;2023-07-29T09:32:57;1.77;;;1.15;;
20697;SDS011;10508;50.956;4.640;2023-07-29T09:35:23;2.33;;;1.27;;
20697;SDS011;10508;50.956;4.640;2023-07-29T09:37:50;3.55;;;1.27;;
20697;SDS011;10508;50.956;4.640;2023-07-29T09:40:17;4.97;;;1.35;;
20697;SDS011;10508;50.956;4.640;2023-07-29T09:42:48;1.65;;;1.10;;
20697;SDS011;10508;50.956;4.640;2023-07-29T09:45:19;4.13;;;1.30;;
20697;SDS011;10508;50.956;4.640;2023-07-29T09:47:47;1.48;;;0.90;;
20697;SDS011;10508;50.956;4.640;2023-07-29T09:50:15;0.95;;;0.80;;
20697;SDS011;10508;50.956;4.640;2023-07-29T09:52:42;2.60;;;1.15;;
20697;SDS011;10508;50.956;4.640;2023-07-29T09:55:16;2.20;;;1.20;;
20697;SDS011;10508;50.956;4.640;2023-07-29T09:57:44;1.25;;;1.10;;
20697;SDS011;10508;50.956;4.640;2023-07-29T10:00:13;3.47;;;1.30;;
20697;SDS011;10508;50.956;4.640;2023-07-29T10:02:41;1.35;;;1.10;;
20697;SDS011;10508;50.956;4.640;2023-07-29T10:05:09;2.47;;;1.20;;
20697;SDS011;10508;50.956;4.640;2023-07-29T10:07:36;2.00;;;1.35;;
20697;SDS011;10508;50.956;4.640;2023-07-29T10:10:04;4.07;;;1.30;;
20697;SDS011;10508;50.956;4.640;2023-07-29T10:12:33;2.15;;;1.10;;
20697;SDS011;10508;50.956;4.640;2023-07-29T10:15:01;1.38;;;0.90;;
20697;SDS011;10508;50.956;4.640;2023-07-29T10:17:34;2.10;;;1.17;;
20697;SDS011;10508;50.956;4.640;2023-07-29T10:20:03;1.45;;;1.00;;
20697;SDS011;10508;50.956;4.640;2023-07-29T10:22:39;1.65;;;1.00;;
20697;SDS011;10508;50.956;4.640;2023-07-29T10:25:08;2.00;;;1.15;;
20697;SDS011;10508;50.956;4.640;2023-07-29T10:27:42;1.17;;;0.88;;
20697;SDS011;10508;50.956;4.640;2023-07-29T10:30:12;1.77;;;1.00;;
20697;SDS011;10508;50.956;4.640;2023-07-29T10:32:43;1.40;;;1.08;;
20697;SDS011;10508;50.956;4.640;2023-07-29T10:35:14;1.48;;;1.08;;
20697;SDS011;10508;50.956;4.640;2023-07-29T10:37:42;5.80;;;1.10;;
20697;SDS011;10508;50.956;4.640;2023-07-29T10:40:11;3.35;;;1.10;;
20697;SDS011;10508;50.956;4.640;2023-07-29T10:42:37;5.07;;;1.40;;
20697;SDS011;10508;50.956;4.640;2023-07-29T10:45:19;3.47;;;1.40;;
20697;SDS011;10508;50.956;4.640;2023-07-29T10:47:45;1.38;;;1.20;;
20697;SDS011;10508;50.956;4.640;2023-07-29T10:50:18;1.15;;;0.98;;
20697;SDS011;10508;50.956;4.640;2023-07-29T10:52:48;1.15;;;0.85;;
20697;SDS011;10508;50.956;4.640;2023-07-29T10:55:27;2.80;;;1.10;;
20697;SDS011;10508;50.956;4.640;2023-07-29T11:00:32;4.43;;;1.27;;
20697;SDS011;10508;50.956;4.640;2023-07-29T11:02:59;2.63;;;1.40;;
20697;SDS011;10508;50.956;4.640;2023-07-29T11:05:44;4.53;;;1.15;;
20697;SDS011;10508;50.956;4.640;2023-07-29T11:08:17;5.97;;;1.60;;
20697;SDS011;10508;50.956;4.640;2023-07-29T11:10:44;11.70;;;1.70;;
20697;SDS011;10508;50.956;4.640;2023-07-29T11:13:28;9.55;;;2.58;;
20697;SDS011;10508;50.956;4.640;2023-07-29T11:15:55;3.80;;;1.50;;
20697;SDS011;10508;50.956;4.640;2023-07-29T11:18:24;5.65;;;1.80;;
20697;SDS011;10508;50.956;4.640;2023-07-29T11:20:56;2.38;;;1.23;;
20697;SDS011;10508;50.956;4.640;2023-07-29T11:26:01;5.53;;;1.80;;
20697;SDS011;10508;50.956;4.640;2023-07-29T11:28:28;3.65;;;1.40;;
20697;SDS011;10508;50.956;4.640;2023-07-29T11:30:54;2.95;;;1.33;;
20697;SDS011;10508;50.956;4.640;2023-07-29T11:33:21;4.40;;;1.58;;
20697;SDS011;10508;50.956;4.640;2023-07-29T11:35:52;3.72;;;1.50;;
20697;SDS011;10508;50.956;4.640;2023-07-29T11:38:19;2.70;;;1.90;;
20697;SDS011;10508;50.956;4.640;2023-07-29T11:40:55;4.22;;;2.20;;
20697;SDS011;10508;50.956;4.640;2023-07-29T11:43:23;4.78;;;1.83;;
20697;SDS011;10508;50.956;4.640;2023-07-29T11:45:51;3.20;;;2.33;;
20697;SDS011;10508;50.956;4.640;2023-07-29T11:48:18;3.65;;;2.25;;
20697;SDS011;10508;50.956;4.640;2023-07-29T11:50:56;2.65;;;1.63;;
20697;SDS011;10508;50.956;4.640;2023-07-29T11:53:22;3.35;;;1.70;;
20697;SDS011;10508;50.956;4.640;2023-07-29T11:55:51;2.45;;;1.90;;
20697;SDS011;10508;50.956;4.640;2023-07-29T11:58:18;2.85;;;1.52;;
20697;SDS011;10508;50.956;4.640;2023-07-29T12:00:43;1.83;;;1.58;;
20697;SDS011;10508;50.956;4.640;2023-07-29T12:03:09;1.80;;;1.35;;
20697;SDS011;10508;50.956;4.640;2023-07-29T12:05:37;1.30;;;1.20;;
20697;SDS011;10508;50.956;4.640;2023-07-29T12:08:02;1.40;;;1.10;;
20697;SDS011;10508;50.956;4.640;2023-07-29T12:10:28;1.85;;;1.30;;
20697;SDS011;10508;50.956;4.640;2023-07-29T12:12:54;2.00;;;1.38;;
20697;SDS011;10508;50.956;4.640;2023-07-29T12:15:24;1.42;;;1.27;;
20697;SDS011;10508;50.956;4.640;2023-07-29T12:17:54;2.78;;;1.40;;
20697;SDS011;10508;50.956;4.640;2023-07-29T12:20:21;4.72;;;1.40;;
20697;SDS011;10508;50.956;4.640;2023-07-29T12:22:51;3.60;;;1.80;;
20697;SDS011;10508;50.956;4.640;2023-07-29T12:25:26;3.05;;;1.48;;
20697;SDS011;10508;50.956;4.640;2023-07-29T12:27:52;1.95;;;1.42;;
20697;SDS011;10508;50.956;4.640;2023-07-29T12:30:24;3.95;;;1.88;;
20697;SDS011;10508;50.956;4.640;2023-07-29T12:32:52;2.58;;;1.95;;
20697;SDS011;10508;50.956;4.640;2023-07-29T12:35:18;2.20;;;2.00;;
20697;SDS011;10508;50.956;4.640;2023-07-29T12:37:44;7.65;;;3.22;;
20697;SDS011;10508;50.956;4.640;2023-07-29T12:40:25;5.45;;;2.55;;
20697;SDS011;10508;50.956;4.640;2023-07-29T12:42:51;5.43;;;2.05;;
20697;SDS011;10508;50.956;4.640;2023-07-29T12:45:17;2.92;;;1.90;;
20697;SDS011;10508;50.956;4.640;2023-07-29T12:47:44;5.97;;;2.33;;
20697;SDS011;10508;50.956;4.640;2023-07-29T12:50:09;5.20;;;2.05;;
20697;SDS011;10508;50.956;4.640;2023-07-29T12:52:35;5.35;;;2.63;;
20697;SDS011;10508;50.956;4.640;2023-07-29T12:55:00;3.97;;;2.15;;
20697;SDS011;10508;50.956;4.640;2023-07-29T12:57:28;4.93;;;2.45;;
20697;SDS011;10508;50.956;4.640;2023-07-29T12:59:54;7.50;;;2.30;;
20697;SDS011;10508;50.956;4.640;2023-07-29T13:02:20;4.50;;;2.08;;
20697;SDS011;10508;50.956;4.640;2023-07-29T13:04:46;3.00;;;2.05;;
20697;SDS011;10508;50.956;4.640;2023-07-29T13:07:12;6.50;;;2.50;;
20697;SDS011;10508;50.956;4.640;2023-07-29T13:09:38;3.10;;;2.17;;
20697;SDS011;10508;50.956;4.640;2023-07-29T13:12:04;3.13;;;2.17;;
20697;SDS011;10508;50.956;4.640;2023-07-29T13:14:32;5.47;;;2.28;;
20697;SDS011;10508;50.956;4.640;2023-07-29T13:16:58;3.35;;;2.40;;
20697;SDS011;10508;50.956;4.640;2023-07-29T13:19:28;4.35;;;2.67;;
20697;SDS011;10508;50.956;4.640;2023-07-29T13:21:54;3.80;;;2.50;;
20697;SDS011;10508;50.956;4.640;2023-07-29T13:24:19;4.53;;;2.30;;
20697;SDS011;10508;50.956;4.640;2023-07-29T13:26:45;3.05;;;2.20;;
20697;SDS011;10508;50.956;4.640;2023-07-29T13:29:11;4.68;;;2.33;;
20697;SDS011;10508;50.956;4.640;2023-07-29T13:31:38;2.70;;;2.05;;
20697;SDS011;10508;50.956;4.640;2023-07-29T13:34:03;4.13;;;2.30;;
20697;SDS011;10508;50.956;4.640;2023-07-29T13:36:29;2.40;;;2.08;;
20697;SDS011;10508;50.956;4.640;2023-07-29T13:38:56;3.65;;;2.30;;
20697;SDS011;10508;50.956;4.640;2023-07-29T13:41:22;2.42;;;2.00;;
20697;SDS011;10508;50.956;4.640;2023-07-29T13:43:49;2.83;;;2.17;;
20697;SDS011;10508;50.956;4.640;2023-07-29T13:46:16;3.42;;;2.10;;
20697;SDS011;10508;50.956;4.640;2023-07-29T13:48:45;4.80;;;2.35;;
20697;SDS011;10508;50.956;4.640;2023-07-29T13:51:11;3.15;;;2.22;;
20697;SDS011;10508;50.956;4.640;2023-07-29T13:53:36;3.15;;;2.15;;
20697;SDS011;10508;50.956;4.640;2023-07-29T13:56:03;2.72;;;1.90;;
20697;SDS011;10508;50.956;4.640;2023-07-29T13:58:32;5.07;;;2.10;;
20697;SDS011;10508;50.956;4.640;2023-07-29T14:00:58;3.50;;;2.08;;
20697;SDS011;10508;50.956;4.640;2023-07-29T14:03:24;4.68;;;2.22;;
20697;SDS011;10508;50.956;4.640;2023-07-29T14:05:53;2.63;;;1.77;;
20697;SDS011;10508;50.956;4.640;2023-07-29T14:08:20;2.13;;;1.52;;
20697;SDS011;10508;50.956;4.640;2023-07-29T14:10:49;3.78;;;1.70;;
20697;SDS011;10508;50.956;4.640;2023-07-29T14:13:21;1.95;;;1.70;;
20697;SDS011;10508;50.956;4.640;2023-07-29T14:15:47;2.08;;;1.50;;
20697;SDS011;10508;50.956;4.640;2023-07-29T14:18:13;2.92;;;1.88;;
20697;SDS011;10508;50.956;4.640;2023-07-29T14:20:39;2.10;;;1.42;;
20697;SDS011;10508;50.956;4.640;2023-07-29T14:23:05;1.40;;;1.30;;
20697;SDS011;10508;50.956;4.640;2023-07-29T14:25:30;2.80;;;1.50;;
20697;SDS011;10508;50.956;4.640;2023-07-29T14:27:56;2.05;;;1.60;;
20697;SDS011;10508;50.956;4.640;2023-07-29T14:30:21;2.47;;;1.38;;
20697;SDS011;10508;50.956;4.640;2023-07-29T14:32:47;1.52;;;1.38;;
20697;SDS011;10508;50.956;4.640;2023-07-29T14:35:13;5.70;;;1.83;;
20697;SDS011;10508;50.956;4.640;2023-07-29T14:37:39;3.83;;;1.85;;
20697;SDS011;10508;50.956;4.640;2023-07-29T14:40:04;1.20;;;1.10;;
20697;SDS011;10508;50.956;4.640;2023-07-29T14:42:31;0.80;;;0.80;;
20697;SDS011;10508;50.956;4.640;2023-07-29T14:44:56;1.15;;;1.05;;
20697;SDS011;10508;50.956;4.640;2023-07-29T14:47:22;1.67;;;0.98;;
20697;SDS011;10508;50.956;4.640;2023-07-29T14:49:48;2.03;;;1.08;;
20697;SDS011;10508;50.956;4.640;2023-07-29T14:52:13;2.25;;;1.10;;
20697;SDS011;10508;50.956;4.640;2023-07-29T14:54:39;3.33;;;1.02;;
20697;SDS011;10508;50.956;4.640;2023-07-29T14:57:05;1.63;;;1.20;;
20697;SDS011;10508;50.956;4.640;2023-07-29T14:59:31;1.73;;;0.98;;
20697;SDS011;10508;50.956;4.640;2023-07-29T15:01:57;2.08;;;1.23;;